AHK113 ZJSY-VHHX
Flight info
| Callsign | AHK113 |
|---|---|
| Flight time | N/A |
| Altitude | 29100 |
| Route | PORAP W222 SAMAS/K0841S1070 A202 SIKOU/N0448F370 |
| Aircraft | A306/H-SDE3FGHIRWY/LB1 |
Departure
| Time | 2026-04-30 14:24 |
|---|---|
| Airport | Sanya Phoenix International Airport (ZJSY) |
Arrival
| Time | N/A |
|---|---|
| Airport | Hong Kong International Airport Kai Tak (VHHX) |
| Time | Latitude | Longitude | Altitude | Speed | Heading |
|---|---|---|---|---|---|
| 2026-04-30 13:49 | 18.30593 | 109.39855 | 81 ft | 0 kts | 262° |
| 2026-04-30 14:18 | 18.30588 | 109.39828 | 83 ft | 9 kts | 256° |
| 2026-04-30 14:18 | 18.30544 | 109.39798 | 81 ft | 7 kts | 186° |
| 2026-04-30 14:18 | 18.30386 | 109.39816 | 80 ft | 17 kts | 172° |
| 2026-04-30 14:19 | 18.30277 | 109.39791 | 81 ft | 8 kts | 256° |
| 2026-04-30 14:19 | 18.30269 | 109.39718 | 80 ft | 10 kts | 263° |
| 2026-04-30 14:19 | 18.30260 | 109.39646 | 79 ft | 9 kts | 256° |
| 2026-04-30 14:20 | 18.30216 | 109.39628 | 79 ft | 6 kts | 180° |
| 2026-04-30 14:20 | 18.30184 | 109.39632 | 80 ft | 0 kts | 173° |
| 2026-04-30 14:21 | 18.30166 | 109.39634 | 81 ft | 7 kts | 173° |
| 2026-04-30 14:22 | 18.30125 | 109.39639 | 80 ft | 5 kts | 173° |
| 2026-04-30 14:22 | 18.30090 | 109.39678 | 80 ft | 5 kts | 91° |
| 2026-04-30 14:22 | 18.30095 | 109.39726 | 80 ft | 9 kts | 82° |
| 2026-04-30 14:23 | 18.30165 | 109.40250 | 84 ft | 86 kts | 82° |
| 2026-04-30 14:23 | 18.30431 | 109.42259 | 131 ft | 184 kts | 82° |
| 2026-04-30 14:24 | 18.30748 | 109.45208 | 1376 ft | 203 kts | 84° |
| 2026-04-30 14:24 | 18.30859 | 109.46634 | 2475 ft | 194 kts | 86° |
| 2026-04-30 14:25 | 18.31546 | 109.49635 | 3526 ft | 234 kts | 52° |
| 2026-04-30 14:25 | 18.34324 | 109.51534 | 5286 ft | 246 kts | 29° |
| 2026-04-30 14:26 | 18.37323 | 109.53386 | 7113 ft | 254 kts | 31° |
| 2026-04-30 14:26 | 18.38832 | 109.54384 | 8030 ft | 259 kts | 32° |
| 2026-04-30 14:26 | 18.41907 | 109.56480 | 10065 ft | 269 kts | 32° |
| 2026-04-30 14:27 | 18.43488 | 109.57568 | 11097 ft | 275 kts | 32° |
| 2026-04-30 14:27 | 18.45094 | 109.58678 | 12110 ft | 279 kts | 32° |
| 2026-04-30 14:27 | 18.46728 | 109.59810 | 13077 ft | 284 kts | 32° |
| 2026-04-30 14:28 | 18.50184 | 109.61973 | 14753 ft | 300 kts | 24° |
| 2026-04-30 14:28 | 18.52137 | 109.62923 | 15127 ft | 321 kts | 23° |
| 2026-04-30 14:28 | 18.54231 | 109.63911 | 15478 ft | 341 kts | 23° |
| 2026-04-30 14:28 | 18.56451 | 109.64962 | 15798 ft | 359 kts | 23° |
| 2026-04-30 14:29 | 18.61203 | 109.67225 | 16379 ft | 391 kts | 23° |
| 2026-04-30 14:29 | 18.65432 | 109.69250 | 16846 ft | 411 kts | 23° |
| 2026-04-30 14:30 | 18.74280 | 109.73497 | 18399 ft | 427 kts | 23° |
| 2026-04-30 14:31 | 18.79719 | 109.76108 | 19343 ft | 433 kts | 23° |
| 2026-04-30 14:31 | 18.85221 | 109.78750 | 20179 ft | 439 kts | 23° |
| 2026-04-30 14:31 | 18.88007 | 109.80089 | 20582 ft | 442 kts | 23° |
| 2026-04-30 14:32 | 18.93622 | 109.82789 | 21343 ft | 447 kts | 23° |
| 2026-04-30 14:32 | 18.96462 | 109.84156 | 21696 ft | 450 kts | 23° |
| 2026-04-30 14:32 | 18.99310 | 109.85526 | 22057 ft | 453 kts | 23° |
| 2026-04-30 14:33 | 19.02176 | 109.86905 | 22408 ft | 455 kts | 23° |
| 2026-04-30 14:33 | 19.07960 | 109.89691 | 23055 ft | 460 kts | 23° |
| 2026-04-30 14:33 | 19.10865 | 109.91091 | 23361 ft | 463 kts | 23° |
| 2026-04-30 14:34 | 19.13792 | 109.92503 | 23658 ft | 465 kts | 23° |
| 2026-04-30 14:34 | 19.16742 | 109.93925 | 23948 ft | 467 kts | 23° |
| 2026-04-30 14:34 | 19.19702 | 109.95354 | 24242 ft | 470 kts | 23° |
| 2026-04-30 14:34 | 19.22676 | 109.96789 | 24535 ft | 472 kts | 23° |
| 2026-04-30 14:35 | 19.27664 | 109.99168 | 25002 ft | 475 kts | 22° |
| 2026-04-30 14:35 | 19.31703 | 110.01045 | 25372 ft | 478 kts | 22° |
| 2026-04-30 14:35 | 19.34742 | 110.02475 | 25651 ft | 479 kts | 22° |
| 2026-04-30 14:36 | 19.37772 | 110.03924 | 25901 ft | 481 kts | 22° |
| 2026-04-30 14:36 | 19.40821 | 110.05394 | 26162 ft | 483 kts | 23° |
| 2026-04-30 14:36 | 19.43879 | 110.06872 | 26437 ft | 485 kts | 22° |
| 2026-04-30 14:36 | 19.46947 | 110.08357 | 26697 ft | 486 kts | 22° |
| 2026-04-30 14:37 | 19.50024 | 110.09846 | 26920 ft | 488 kts | 22° |
| 2026-04-30 14:37 | 19.53112 | 110.11340 | 27143 ft | 490 kts | 22° |
| 2026-04-30 14:37 | 19.56213 | 110.12840 | 27367 ft | 491 kts | 22° |
| 2026-04-30 14:37 | 19.59318 | 110.14343 | 27595 ft | 493 kts | 22° |
| 2026-04-30 14:38 | 19.62442 | 110.15854 | 27802 ft | 495 kts | 22° |
| 2026-04-30 14:38 | 19.65555 | 110.17360 | 28024 ft | 496 kts | 22° |
| 2026-04-30 14:38 | 19.68682 | 110.18874 | 28323 ft | 495 kts | 22° |
| 2026-04-30 14:38 | 19.71804 | 110.20387 | 28650 ft | 494 kts | 22° |
| 2026-04-30 14:39 | 19.74870 | 110.21873 | 28973 ft | 493 kts | 22° |
| 2026-04-30 14:39 | 19.77980 | 110.23382 | 29284 ft | 492 kts | 22° |
| 2026-04-30 14:39 | 19.81083 | 110.24887 | 29605 ft | 490 kts | 22° |
| 2026-04-30 14:40 | 19.87260 | 110.27888 | 30225 ft | 489 kts | 22° |
| 2026-04-30 14:40 | 19.90343 | 110.29385 | 30540 ft | 488 kts | 22° |
| 2026-04-30 14:40 | 19.93427 | 110.30883 | 30823 ft | 488 kts | 22° |
| 2026-04-30 14:40 | 19.96504 | 110.32378 | 31116 ft | 488 kts | 22° |
| 2026-04-30 14:41 | 19.99590 | 110.33878 | 31428 ft | 487 kts | 22° |
| 2026-04-30 14:41 | 20.02664 | 110.35373 | 31724 ft | 487 kts | 22° |
| 2026-04-30 14:41 | 20.05735 | 110.36869 | 32027 ft | 487 kts | 22° |
| 2026-04-30 14:41 | 20.08884 | 110.38152 | 32330 ft | 484 kts | 14° |
| 2026-04-30 14:42 | 20.12099 | 110.39134 | 32663 ft | 482 kts | 13° |
| 2026-04-30 14:42 | 20.15257 | 110.40035 | 32974 ft | 481 kts | 12° |
| 2026-04-30 14:42 | 20.18434 | 110.40901 | 33290 ft | 481 kts | 11° |
| 2026-04-30 14:42 | 20.21629 | 110.41754 | 33600 ft | 480 kts | 11° |
| 2026-04-30 14:43 | 20.24863 | 110.42611 | 33910 ft | 479 kts | 11° |
| 2026-04-30 14:43 | 20.28097 | 110.43468 | 34195 ft | 480 kts | 11° |
| 2026-04-30 14:43 | 20.31318 | 110.44327 | 34492 ft | 479 kts | 11° |
| 2026-04-30 14:43 | 20.34549 | 110.45192 | 34788 ft | 478 kts | 12° |
| 2026-04-30 14:44 | 20.37768 | 110.46059 | 35012 ft | 479 kts | 12° |
| 2026-04-30 14:44 | 20.40969 | 110.46925 | 35039 ft | 470 kts | 12° |
| 2026-04-30 14:44 | 20.46881 | 110.49589 | 35041 ft | 463 kts | 31° |
| 2026-04-30 14:45 | 20.49415 | 110.51694 | 35043 ft | 464 kts | 42° |
| 2026-04-30 14:45 | 20.51528 | 110.54294 | 35044 ft | 466 kts | 54° |
| 2026-04-30 14:45 | 20.53113 | 110.57299 | 35048 ft | 467 kts | 65° |
| 2026-04-30 14:45 | 20.54345 | 110.60495 | 35045 ft | 467 kts | 68° |
| 2026-04-30 14:46 | 20.56546 | 110.67027 | 35047 ft | 473 kts | 70° |
| 2026-04-30 14:46 | 20.58351 | 110.72602 | 35049 ft | 483 kts | 70° |
| 2026-04-30 14:47 | 20.60955 | 110.80501 | 35044 ft | 485 kts | 70° |
| 2026-04-30 14:47 | 20.63219 | 110.87269 | 35045 ft | 484 kts | 70° |
| 2026-04-30 14:48 | 20.65496 | 110.94023 | 35044 ft | 484 kts | 70° |
| 2026-04-30 14:48 | 20.67781 | 111.00765 | 35043 ft | 484 kts | 70° |
| 2026-04-30 14:49 | 20.70063 | 111.07514 | 35045 ft | 484 kts | 70° |
| 2026-04-30 14:49 | 20.72339 | 111.14263 | 35046 ft | 483 kts | 70° |
| 2026-04-30 14:50 | 20.75745 | 111.24377 | 35046 ft | 484 kts | 70° |
| 2026-04-30 14:51 | 20.79146 | 111.34498 | 35046 ft | 483 kts | 70° |
| 2026-04-30 14:52 | 20.82539 | 111.44618 | 35045 ft | 483 kts | 70° |
| 2026-04-30 14:52 | 20.85436 | 111.54908 | 35046 ft | 483 kts | 77° |
| 2026-04-30 14:53 | 20.87733 | 111.65370 | 35044 ft | 483 kts | 77° |
| 2026-04-30 14:54 | 20.90795 | 111.79327 | 35044 ft | 483 kts | 77° |
| 2026-04-30 14:55 | 20.93089 | 111.89806 | 35042 ft | 483 kts | 77° |
| 2026-04-30 14:56 | 20.96130 | 112.03753 | 35046 ft | 482 kts | 77° |
| 2026-04-30 14:57 | 20.98405 | 112.14225 | 35045 ft | 482 kts | 77° |
| 2026-04-30 14:58 | 21.01426 | 112.28172 | 35045 ft | 482 kts | 77° |
| 2026-04-30 14:58 | 21.03687 | 112.38646 | 35045 ft | 482 kts | 77° |
| 2026-04-30 15:00 | 21.07438 | 112.56104 | 35046 ft | 482 kts | 77° |
| 2026-04-30 15:01 | 21.10429 | 112.70088 | 35045 ft | 482 kts | 77° |
| 2026-04-30 15:01 | 21.12661 | 112.80570 | 35045 ft | 482 kts | 77° |
| 2026-04-30 15:02 | 21.14147 | 112.87563 | 35046 ft | 483 kts | 77° |
| 2026-04-30 15:03 | 21.17846 | 113.05035 | 33930 ft | 481 kts | 77° |
| 2026-04-30 15:04 | 21.19326 | 113.12050 | 31854 ft | 486 kts | 77° |
| 2026-04-30 15:04 | 21.21540 | 113.22579 | 29253 ft | 477 kts | 77° |
| 2026-04-30 15:05 | 21.23685 | 113.32812 | 26551 ft | 469 kts | 77° |
| 2026-04-30 15:06 | 21.25114 | 113.39648 | 24199 ft | 471 kts | 77° |
| 2026-04-30 15:06 | 21.26545 | 113.46512 | 21786 ft | 471 kts | 77° |
| 2026-04-30 15:07 | 21.27932 | 113.53180 | 20413 ft | 446 kts | 77° |
| 2026-04-30 15:07 | 21.29899 | 113.59244 | 19251 ft | 423 kts | 56° |
| 2026-04-30 15:08 | 21.34173 | 113.63213 | 18022 ft | 403 kts | 25° |
| 2026-04-30 15:08 | 21.41691 | 113.66621 | 16154 ft | 383 kts | 21° |
| 2026-04-30 15:09 | 21.46550 | 113.68792 | 14899 ft | 373 kts | 21° |
| 2026-04-30 15:09 | 21.51259 | 113.70914 | 13650 ft | 363 kts | 21° |
| 2026-04-30 15:10 | 21.55850 | 113.72984 | 12448 ft | 353 kts | 21° |
| 2026-04-30 15:11 | 21.64451 | 113.76870 | 10706 ft | 321 kts | 21° |
| 2026-04-30 15:11 | 21.68477 | 113.78694 | 9852 ft | 309 kts | 21° |
| 2026-04-30 15:12 | 21.74264 | 113.81316 | 8712 ft | 294 kts | 22° |
| 2026-04-30 15:13 | 21.78000 | 113.83009 | 7988 ft | 291 kts | 22° |
| 2026-04-30 15:14 | 21.85338 | 113.86338 | 6517 ft | 283 kts | 22° |
| 2026-04-30 15:14 | 21.90700 | 113.88771 | 5388 ft | 274 kts | 22° |
| 2026-04-30 15:16 | 21.99091 | 113.92594 | 3792 ft | 247 kts | 23° |
| 2026-04-30 15:17 | 22.05132 | 113.95334 | 2981 ft | 220 kts | 24° |
| 2026-04-30 15:18 | 22.11594 | 113.98284 | 2992 ft | 199 kts | 24° |
| 2026-04-30 15:19 | 22.15410 | 114.00022 | 2990 ft | 198 kts | 24° |